sensor_id;sensor_type;location;lat;lon;timestamp;temperature;humidity
52058;DHT22;38063;53.210;6.504;2023-09-19T00:00:07;14.00;99.90
52058;DHT22;38063;53.210;6.504;2023-09-19T00:02:32;13.90;99.90
52058;DHT22;38063;53.210;6.504;2023-09-19T00:04:58;13.90;99.90
52058;DHT22;38063;53.210;6.504;2023-09-19T00:07:24;13.90;99.90
52058;DHT22;38063;53.210;6.504;2023-09-19T00:09:49;13.80;99.90
52058;DHT22;38063;53.210;6.504;2023-09-19T00:12:15;13.90;99.90
52058;DHT22;38063;53.210;6.504;2023-09-19T00:14:41;14.50;99.90
52058;DHT22;38063;53.210;6.504;2023-09-19T00:17:07;13.80;99.90
52058;DHT22;38063;53.210;6.504;2023-09-19T00:19:37;13.80;99.90
52058;DHT22;38063;53.210;6.504;2023-09-19T00:22:08;13.70;99.90
52058;DHT22;38063;53.210;6.504;2023-09-19T00:24:33;13.70;99.90
52058;DHT22;38063;53.210;6.504;2023-09-19T00:26:59;13.70;99.90
52058;DHT22;38063;53.210;6.504;2023-09-19T00:29:25;13.80;99.90
52058;DHT22;38063;53.210;6.504;2023-09-19T00:31:55;13.70;99.90
52058;DHT22;38063;53.210;6.504;2023-09-19T00:34:21;13.70;99.90
52058;DHT22;38063;53.210;6.504;2023-09-19T00:36:47;13.70;99.90
52058;DHT22;38063;53.210;6.504;2023-09-19T00:39:13;13.70;99.90
52058;DHT22;38063;53.210;6.504;2023-09-19T00:41:38;13.70;99.90
52058;DHT22;38063;53.210;6.504;2023-09-19T00:44:04;13.70;99.90
52058;DHT22;38063;53.210;6.504;2023-09-19T00:46:31;13.70;99.90
52058;DHT22;38063;53.210;6.504;2023-09-19T00:48:58;13.60;99.90
52058;DHT22;38063;53.210;6.504;2023-09-19T00:51:25;13.60;99.90
52058;DHT22;38063;53.210;6.504;2023-09-19T00:53:52;13.60;99.90
52058;DHT22;38063;53.210;6.504;2023-09-19T00:56:19;13.60;99.90
52058;DHT22;38063;53.210;6.504;2023-09-19T00:58:45;13.50;99.90
52058;DHT22;38063;53.210;6.504;2023-09-19T01:01:12;13.40;99.90
52058;DHT22;38063;53.210;6.504;2023-09-19T01:03:41;13.40;99.90
52058;DHT22;38063;53.210;6.504;2023-09-19T01:06:07;13.40;99.90
52058;DHT22;38063;53.210;6.504;2023-09-19T01:08:34;13.40;99.90
52058;DHT22;38063;53.210;6.504;2023-09-19T01:11:20;13.40;99.90
52058;DHT22;38063;53.210;6.504;2023-09-19T01:14:15;13.30;99.90
52058;DHT22;38063;53.210;6.504;2023-09-19T01:16:56;13.20;99.90
52058;DHT22;38063;53.210;6.504;2023-09-19T01:22:28;13.20;99.90
52058;DHT22;38063;53.210;6.504;2023-09-19T01:28:06;13.10;99.90
52058;DHT22;38063;53.210;6.504;2023-09-19T01:30:35;13.10;99.90
52058;DHT22;38063;53.210;6.504;2023-09-19T01:33:05;13.10;99.90
52058;DHT22;38063;53.210;6.504;2023-09-19T01:35:31;13.20;99.90
52058;DHT22;38063;53.210;6.504;2023-09-19T01:37:59;13.00;99.90
52058;DHT22;38063;53.210;6.504;2023-09-19T01:40:25;13.00;99.90
52058;DHT22;38063;53.210;6.504;2023-09-19T01:42:58;13.00;99.90
52058;DHT22;38063;53.210;6.504;2023-09-19T01:45:39;13.00;99.90
52058;DHT22;38063;53.210;6.504;2023-09-19T01:48:18;13.00;99.90
52058;DHT22;38063;53.210;6.504;2023-09-19T01:50:59;12.90;99.90
52058;DHT22;38063;53.210;6.504;2023-09-19T01:53:43;12.90;99.90
52058;DHT22;38063;53.210;6.504;2023-09-19T01:56:16;12.90;99.90
52058;DHT22;38063;53.210;6.504;2023-09-19T01:58:48;12.90;99.90
52058;DHT22;38063;53.210;6.504;2023-09-19T02:01:20;12.80;99.90
52058;DHT22;38063;53.210;6.504;2023-09-19T02:03:48;13.10;99.90
52058;DHT22;38063;53.210;6.504;2023-09-19T02:06:15;12.80;99.90
52058;DHT22;38063;53.210;6.504;2023-09-19T02:08:43;12.80;99.90
52058;DHT22;38063;53.210;6.504;2023-09-19T02:11:11;12.80;99.90
52058;DHT22;38063;53.210;6.504;2023-09-19T02:13:37;13.10;99.90
52058;DHT22;38063;53.210;6.504;2023-09-19T02:16:03;12.70;99.90
52058;DHT22;38063;53.210;6.504;2023-09-19T02:18:30;12.70;99.90
52058;DHT22;38063;53.210;6.504;2023-09-19T02:20:56;12.60;99.90
52058;DHT22;38063;53.210;6.504;2023-09-19T02:23:24;12.60;99.90
52058;DHT22;38063;53.210;6.504;2023-09-19T02:25:54;12.60;99.90
52058;DHT22;38063;53.210;6.504;2023-09-19T02:28:20;12.60;99.90
52058;DHT22;38063;53.210;6.504;2023-09-19T02:30:49;12.50;99.90
52058;DHT22;38063;53.210;6.504;2023-09-19T02:33:16;12.50;99.90
52058;DHT22;38063;53.210;6.504;2023-09-19T02:35:43;12.50;99.90
52058;DHT22;38063;53.210;6.504;2023-09-19T02:38:08;12.50;99.90
52058;DHT22;38063;53.210;6.504;2023-09-19T02:40:37;12.50;99.90
52058;DHT22;38063;53.210;6.504;2023-09-19T02:43:03;12.40;99.90
52058;DHT22;38063;53.210;6.504;2023-09-19T02:45:29;12.40;99.90
52058;DHT22;38063;53.210;6.504;2023-09-19T02:47:55;12.50;99.90
52058;DHT22;38063;53.210;6.504;2023-09-19T02:50:21;12.40;99.90
52058;DHT22;38063;53.210;6.504;2023-09-19T02:52:48;12.40;99.90
52058;DHT22;38063;53.210;6.504;2023-09-19T02:55:15;12.30;99.90
52058;DHT22;38063;53.210;6.504;2023-09-19T02:57:53;12.30;99.90
52058;DHT22;38063;53.210;6.504;2023-09-19T03:00:22;12.30;99.90
52058;DHT22;38063;53.210;6.504;2023-09-19T03:02:54;12.20;99.90
52058;DHT22;38063;53.210;6.504;2023-09-19T03:05:21;12.20;99.90
52058;DHT22;38063;53.210;6.504;2023-09-19T03:07:47;12.20;99.90
52058;DHT22;38063;53.210;6.504;2023-09-19T03:10:19;12.20;99.90
52058;DHT22;38063;53.210;6.504;2023-09-19T03:12:46;12.20;99.90
52058;DHT22;38063;53.210;6.504;2023-09-19T03:15:13;12.20;99.90
52058;DHT22;38063;53.210;6.504;2023-09-19T03:17:45;12.20;99.90
52058;DHT22;38063;53.210;6.504;2023-09-19T03:20:11;12.20;99.90
52058;DHT22;38063;53.210;6.504;2023-09-19T03:22:39;12.20;99.90
52058;DHT22;38063;53.210;6.504;2023-09-19T03:25:06;12.20;99.90
52058;DHT22;38063;53.210;6.504;2023-09-19T03:27:37;12.20;99.90
52058;DHT22;38063;53.210;6.504;2023-09-19T03:30:03;12.20;99.90
52058;DHT22;38063;53.210;6.504;2023-09-19T03:32:36;12.10;99.90
52058;DHT22;38063;53.210;6.504;2023-09-19T03:35:03;12.20;99.90
52058;DHT22;38063;53.210;6.504;2023-09-19T03:37:32;12.20;99.90
52058;DHT22;38063;53.210;6.504;2023-09-19T03:40:00;12.20;99.90
52058;DHT22;38063;53.210;6.504;2023-09-19T03:42:30;12.20;99.90
52058;DHT22;38063;53.210;6.504;2023-09-19T03:44:56;12.20;99.90
52058;DHT22;38063;53.210;6.504;2023-09-19T03:47:22;12.10;99.90
52058;DHT22;38063;53.210;6.504;2023-09-19T03:49:48;12.20;99.90
52058;DHT22;38063;53.210;6.504;2023-09-19T03:52:14;12.20;99.90
52058;DHT22;38063;53.210;6.504;2023-09-19T03:54:41;12.10;99.90
52058;DHT22;38063;53.210;6.504;2023-09-19T03:57:07;12.10;99.90
52058;DHT22;38063;53.210;6.504;2023-09-19T03:59:32;12.30;99.90
52058;DHT22;38063;53.210;6.504;2023-09-19T04:01:58;12.10;99.90
52058;DHT22;38063;53.210;6.504;2023-09-19T04:04:24;12.10;99.90
52058;DHT22;38063;53.210;6.504;2023-09-19T04:06:53;12.30;99.90
52058;DHT22;38063;53.210;6.504;2023-09-19T04:09:19;12.20;99.90
52058;DHT22;38063;53.210;6.504;2023-09-19T04:11:44;12.20;99.90
52058;DHT22;38063;53.210;6.504;2023-09-19T04:14:10;12.20;99.90
52058;DHT22;38063;53.210;6.504;2023-09-19T04:16:35;12.20;99.90
52058;DHT22;38063;53.210;6.504;2023-09-19T04:19:01;12.30;99.90
52058;DHT22;38063;53.210;6.504;2023-09-19T04:21:28;12.20;99.90
52058;DHT22;38063;53.210;6.504;2023-09-19T04:23:54;12.30;99.90
52058;DHT22;38063;53.210;6.504;2023-09-19T04:26:20;12.30;99.90
52058;DHT22;38063;53.210;6.504;2023-09-19T04:28:47;12.30;99.90
52058;DHT22;38063;53.210;6.504;2023-09-19T04:31:13;12.40;99.90
52058;DHT22;38063;53.210;6.504;2023-09-19T04:33:39;12.30;99.90
52058;DHT22;38063;53.210;6.504;2023-09-19T04:36:05;12.40;99.90
52058;DHT22;38063;53.210;6.504;2023-09-19T04:38:33;12.40;99.90
52058;DHT22;38063;53.210;6.504;2023-09-19T04:40:58;12.50;99.90
52058;DHT22;38063;53.210;6.504;2023-09-19T04:43:26;12.40;99.90
52058;DHT22;38063;53.210;6.504;2023-09-19T04:45:52;12.40;99.90
52058;DHT22;38063;53.210;6.504;2023-09-19T04:48:22;12.40;99.90
52058;DHT22;38063;53.210;6.504;2023-09-19T04:50:50;12.40;99.90
52058;DHT22;38063;53.210;6.504;2023-09-19T04:53:17;12.40;99.90
52058;DHT22;38063;53.210;6.504;2023-09-19T04:55:43;12.40;99.90
52058;DHT22;38063;53.210;6.504;2023-09-19T04:58:08;12.40;99.90
52058;DHT22;38063;53.210;6.504;2023-09-19T05:00:34;12.50;99.90
52058;DHT22;38063;53.210;6.504;2023-09-19T05:03:00;12.40;99.90
52058;DHT22;38063;53.210;6.504;2023-09-19T05:05:26;12.50;99.90
52058;DHT22;38063;53.210;6.504;2023-09-19T05:07:53;12.50;99.90
52058;DHT22;38063;53.210;6.504;2023-09-19T05:10:22;12.50;99.90
52058;DHT22;38063;53.210;6.504;2023-09-19T05:12:47;12.50;99.90
52058;DHT22;38063;53.210;6.504;2023-09-19T05:15:16;12.50;99.90
52058;DHT22;38063;53.210;6.504;2023-09-19T05:17:48;12.50;99.90
52058;DHT22;38063;53.210;6.504;2023-09-19T05:20:14;12.50;99.90
52058;DHT22;38063;53.210;6.504;2023-09-19T05:22:50;12.50;99.90
52058;DHT22;38063;53.210;6.504;2023-09-19T05:25:16;12.60;99.90
52058;DHT22;38063;53.210;6.504;2023-09-19T05:27:44;12.60;99.90
52058;DHT22;38063;53.210;6.504;2023-09-19T05:30:10;13.00;99.90
52058;DHT22;38063;53.210;6.504;2023-09-19T05:32:36;12.60;99.90
52058;DHT22;38063;53.210;6.504;2023-09-19T05:35:02;12.60;99.90
52058;DHT22;38063;53.210;6.504;2023-09-19T05:37:28;12.70;99.90
52058;DHT22;38063;53.210;6.504;2023-09-19T05:39:55;12.70;99.90
52058;DHT22;38063;53.210;6.504;2023-09-19T05:42:21;12.70;99.90
52058;DHT22;38063;53.210;6.504;2023-09-19T05:44:46;12.70;99.90
52058;DHT22;38063;53.210;6.504;2023-09-19T05:47:12;12.80;99.90
52058;DHT22;38063;53.210;6.504;2023-09-19T05:49:38;12.80;99.90
52058;DHT22;38063;53.210;6.504;2023-09-19T05:52:07;12.80;99.90
52058;DHT22;38063;53.210;6.504;2023-09-19T05:54:33;12.80;99.90
52058;DHT22;38063;53.210;6.504;2023-09-19T05:57:00;12.80;99.90
52058;DHT22;38063;53.210;6.504;2023-09-19T05:59:27;12.80;99.90
52058;DHT22;38063;53.210;6.504;2023-09-19T06:01:53;12.90;99.90
52058;DHT22;38063;53.210;6.504;2023-09-19T06:04:18;12.90;99.90
52058;DHT22;38063;53.210;6.504;2023-09-19T06:06:47;12.90;99.90
52058;DHT22;38063;53.210;6.504;2023-09-19T06:09:14;12.90;99.90
52058;DHT22;38063;53.210;6.504;2023-09-19T06:11:43;13.00;99.90
52058;DHT22;38063;53.210;6.504;2023-09-19T06:14:08;13.00;99.90
52058;DHT22;38063;53.210;6.504;2023-09-19T06:16:36;13.10;99.90
52058;DHT22;38063;53.210;6.504;2023-09-19T06:19:03;13.00;99.90
52058;DHT22;38063;53.210;6.504;2023-09-19T06:21:32;13.10;99.90
52058;DHT22;38063;53.210;6.504;2023-09-19T06:23:57;13.20;99.90
52058;DHT22;38063;53.210;6.504;2023-09-19T06:26:23;13.20;99.90
52058;DHT22;38063;53.210;6.504;2023-09-19T06:28:49;13.20;99.90
52058;DHT22;38063;53.210;6.504;2023-09-19T06:31:14;13.30;99.90
52058;DHT22;38063;53.210;6.504;2023-09-19T06:33:40;13.30;99.90
52058;DHT22;38063;53.210;6.504;2023-09-19T06:36:07;13.30;99.90
52058;DHT22;38063;53.210;6.504;2023-09-19T06:38:33;13.40;99.90
52058;DHT22;38063;53.210;6.504;2023-09-19T06:41:02;13.40;99.90
52058;DHT22;38063;53.210;6.504;2023-09-19T06:43:32;13.60;99.90
52058;DHT22;38063;53.210;6.504;2023-09-19T06:46:02;13.50;99.90
52058;DHT22;38063;53.210;6.504;2023-09-19T06:48:28;13.50;99.90
52058;DHT22;38063;53.210;6.504;2023-09-19T06:50:58;13.60;99.90
52058;DHT22;38063;53.210;6.504;2023-09-19T06:53:34;13.70;99.90
52058;DHT22;38063;53.210;6.504;2023-09-19T06:56:01;13.80;99.90
52058;DHT22;38063;53.210;6.504;2023-09-19T06:58:27;14.30;99.90
52058;DHT22;38063;53.210;6.504;2023-09-19T07:00:53;13.90;99.90
52058;DHT22;38063;53.210;6.504;2023-09-19T07:03:19;13.90;99.90
52058;DHT22;38063;53.210;6.504;2023-09-19T07:05:48;14.00;99.90
52058;DHT22;38063;53.210;6.504;2023-09-19T07:08:13;14.00;99.90
52058;DHT22;38063;53.210;6.504;2023-09-19T07:10:40;14.10;99.90
52058;DHT22;38063;53.210;6.504;2023-09-19T07:13:07;14.10;99.90
52058;DHT22;38063;53.210;6.504;2023-09-19T07:15:37;14.20;99.90
52058;DHT22;38063;53.210;6.504;2023-09-19T07:18:06;14.20;99.90
52058;DHT22;38063;53.210;6.504;2023-09-19T07:20:32;14.30;99.90
52058;DHT22;38063;53.210;6.504;2023-09-19T07:22:58;14.30;99.90
52058;DHT22;38063;53.210;6.504;2023-09-19T07:25:27;14.40;99.90
52058;DHT22;38063;53.210;6.504;2023-09-19T07:27:55;14.40;99.90
52058;DHT22;38063;53.210;6.504;2023-09-19T07:30:21;14.60;99.90
52058;DHT22;38063;53.210;6.504;2023-09-19T07:32:47;14.60;99.90
52058;DHT22;38063;53.210;6.504;2023-09-19T07:35:13;14.60;99.90
52058;DHT22;38063;53.210;6.504;2023-09-19T07:37:40;14.70;99.90
52058;DHT22;38063;53.210;6.504;2023-09-19T07:40:06;14.70;99.90
52058;DHT22;38063;53.210;6.504;2023-09-19T07:42:36;14.70;99.90
52058;DHT22;38063;53.210;6.504;2023-09-19T07:45:04;14.70;99.90
52058;DHT22;38063;53.210;6.504;2023-09-19T07:47:30;14.70;99.90
52058;DHT22;38063;53.210;6.504;2023-09-19T07:49:58;14.80;99.90
52058;DHT22;38063;53.210;6.504;2023-09-19T07:52:25;14.90;99.90
52058;DHT22;38063;53.210;6.504;2023-09-19T07:54:53;15.00;99.90
52058;DHT22;38063;53.210;6.504;2023-09-19T07:57:18;15.00;99.90
52058;DHT22;38063;53.210;6.504;2023-09-19T07:59:45;15.10;99.90
52058;DHT22;38063;53.210;6.504;2023-09-19T08:02:11;15.00;99.90
52058;DHT22;38063;53.210;6.504;2023-09-19T08:04:45;15.00;99.90
52058;DHT22;38063;53.210;6.504;2023-09-19T08:07:14;15.10;99.90
52058;DHT22;38063;53.210;6.504;2023-09-19T08:09:40;15.00;99.90
52058;DHT22;38063;53.210;6.504;2023-09-19T08:12:07;15.10;99.90
52058;DHT22;38063;53.210;6.504;2023-09-19T08:14:36;15.10;99.90
52058;DHT22;38063;53.210;6.504;2023-09-19T08:17:03;15.20;99.90
52058;DHT22;38063;53.210;6.504;2023-09-19T08:19:31;15.30;99.90
52058;DHT22;38063;53.210;6.504;2023-09-19T08:21:58;15.50;99.90
52058;DHT22;38063;53.210;6.504;2023-09-19T08:24:30;15.50;99.90
52058;DHT22;38063;53.210;6.504;2023-09-19T08:26:57;15.50;99.90
52058;DHT22;38063;53.210;6.504;2023-09-19T08:29:23;15.60;99.90
52058;DHT22;38063;53.210;6.504;2023-09-19T08:31:56;15.70;99.90
52058;DHT22;38063;53.210;6.504;2023-09-19T08:34:26;15.70;99.90
52058;DHT22;38063;53.210;6.504;2023-09-19T08:36:52;15.80;99.90
52058;DHT22;38063;53.210;6.504;2023-09-19T08:39:22;15.80;99.90
52058;DHT22;38063;53.210;6.504;2023-09-19T08:41:48;16.00;99.90
52058;DHT22;38063;53.210;6.504;2023-09-19T08:44:15;16.10;99.90
52058;DHT22;38063;53.210;6.504;2023-09-19T08:46:41;16.20;99.90
52058;DHT22;38063;53.210;6.504;2023-09-19T08:49:24;16.30;99.90
52058;DHT22;38063;53.210;6.504;2023-09-19T08:52:01;16.50;99.90
52058;DHT22;38063;53.210;6.504;2023-09-19T08:54:35;16.60;99.90
52058;DHT22;38063;53.210;6.504;2023-09-19T08:57:06;16.80;99.90
52058;DHT22;38063;53.210;6.504;2023-09-19T08:59:38;16.80;99.90
52058;DHT22;38063;53.210;6.504;2023-09-19T09:02:11;16.80;99.90
52058;DHT22;38063;53.210;6.504;2023-09-19T09:04:40;16.90;99.90
52058;DHT22;38063;53.210;6.504;2023-09-19T09:07:11;17.00;99.90
52058;DHT22;38063;53.210;6.504;2023-09-19T09:09:38;17.00;99.90
52058;DHT22;38063;53.210;6.504;2023-09-19T09:12:10;17.10;99.90
52058;DHT22;38063;53.210;6.504;2023-09-19T09:14:38;17.20;99.90
52058;DHT22;38063;53.210;6.504;2023-09-19T09:17:03;17.10;99.90
52058;DHT22;38063;53.210;6.504;2023-09-19T09:19:30;17.20;99.90
52058;DHT22;38063;53.210;6.504;2023-09-19T09:22:09;17.20;99.90
52058;DHT22;38063;53.210;6.504;2023-09-19T09:24:36;17.20;99.90
52058;DHT22;38063;53.210;6.504;2023-09-19T09:27:07;17.20;99.90
52058;DHT22;38063;53.210;6.504;2023-09-19T09:29:43;17.20;99.90
52058;DHT22;38063;53.210;6.504;2023-09-19T09:32:20;17.30;99.90
52058;DHT22;38063;53.210;6.504;2023-09-19T09:34:49;17.30;99.90
52058;DHT22;38063;53.210;6.504;2023-09-19T09:37:16;17.20;99.90
52058;DHT22;38063;53.210;6.504;2023-09-19T09:42:35;17.30;99.90
52058;DHT22;38063;53.210;6.504;2023-09-19T09:45:23;17.20;99.90
52058;DHT22;38063;53.210;6.504;2023-09-19T09:48:03;17.20;99.90
52058;DHT22;38063;53.210;6.504;2023-09-19T09:50:33;17.30;99.90
52058;DHT22;38063;53.210;6.504;2023-09-19T09:53:26;17.40;99.90
52058;DHT22;38063;53.210;6.504;2023-09-19T09:56:09;17.50;99.90
52058;DHT22;38063;53.210;6.504;2023-09-19T09:58:49;17.50;99.90
52058;DHT22;38063;53.210;6.504;2023-09-19T10:01:14;17.50;99.90
52058;DHT22;38063;53.210;6.504;2023-09-19T10:03:42;17.70;99.90
52058;DHT22;38063;53.210;6.504;2023-09-19T10:06:14;17.70;99.90
52058;DHT22;38063;53.210;6.504;2023-09-19T10:09:09;17.90;99.90
52058;DHT22;38063;53.210;6.504;2023-09-19T10:12:15;18.10;99.90
52058;DHT22;38063;53.210;6.504;2023-09-19T10:14:43;18.30;99.90
52058;DHT22;38063;53.210;6.504;2023-09-19T10:17:13;18.40;99.90
52058;DHT22;38063;53.210;6.504;2023-09-19T10:19:55;18.50;99.90
52058;DHT22;38063;53.210;6.504;2023-09-19T10:22:24;18.70;99.90
52058;DHT22;38063;53.210;6.504;2023-09-19T10:24:53;18.80;99.90
52058;DHT22;38063;53.210;6.504;2023-09-19T10:27:20;18.70;99.90
52058;DHT22;38063;53.210;6.504;2023-09-19T10:29:49;18.80;99.90
52058;DHT22;38063;53.210;6.504;2023-09-19T10:32:19;18.70;99.90
52058;DHT22;38063;53.210;6.504;2023-09-19T10:34:50;18.70;99.90
52058;DHT22;38063;53.210;6.504;2023-09-19T10:37:16;18.80;99.90
52058;DHT22;38063;53.210;6.504;2023-09-19T10:39:46;18.90;99.90
52058;DHT22;38063;53.210;6.504;2023-09-19T10:42:19;18.90;99.90
52058;DHT22;38063;53.210;6.504;2023-09-19T10:44:47;19.00;99.90
52058;DHT22;38063;53.210;6.504;2023-09-19T10:47:17;19.00;99.90
52058;DHT22;38063;53.210;6.504;2023-09-19T10:49:45;18.90;99.90
52058;DHT22;38063;53.210;6.504;2023-09-19T10:52:21;18.80;99.90
52058;DHT22;38063;53.210;6.504;2023-09-19T10:54:52;18.70;99.90
52058;DHT22;38063;53.210;6.504;2023-09-19T10:57:24;18.60;99.90
52058;DHT22;38063;53.210;6.504;2023-09-19T11:00:06;18.40;99.90
52058;DHT22;38063;53.210;6.504;2023-09-19T11:05:35;18.40;99.90
52058;DHT22;38063;53.210;6.504;2023-09-19T11:08:07;18.50;99.90
52058;DHT22;38063;53.210;6.504;2023-09-19T11:10:51;18.50;99.90
52058;DHT22;38063;53.210;6.504;2023-09-19T11:13:27;18.40;99.90
52058;DHT22;38063;53.210;6.504;2023-09-19T11:26:48;18.30;99.90
52058;DHT22;38063;53.210;6.504;2023-09-19T11:29:27;18.40;99.90
52058;DHT22;38063;53.210;6.504;2023-09-19T11:31:55;18.40;99.90
52058;DHT22;38063;53.210;6.504;2023-09-19T11:37:03;18.50;99.90
52058;DHT22;38063;53.210;6.504;2023-09-19T11:40:07;18.70;99.90
52058;DHT22;38063;53.210;6.504;2023-09-19T11:42:43;18.90;99.90
52058;DHT22;38063;53.210;6.504;2023-09-19T11:48:23;18.90;99.90
52058;DHT22;38063;53.210;6.504;2023-09-19T11:50:51;18.90;99.90
52058;DHT22;38063;53.210;6.504;2023-09-19T11:53:18;18.90;99.90
52058;DHT22;38063;53.210;6.504;2023-09-19T11:55:45;19.00;99.90
52058;DHT22;38063;53.210;6.504;2023-09-19T11:58:13;18.90;99.90
52058;DHT22;38063;53.210;6.504;2023-09-19T12:00:44;18.90;99.90
52058;DHT22;38063;53.210;6.504;2023-09-19T12:03:11;18.80;99.90
52058;DHT22;38063;53.210;6.504;2023-09-19T12:05:37;18.70;99.90
52058;DHT22;38063;53.210;6.504;2023-09-19T12:08:09;18.50;99.90
52058;DHT22;38063;53.210;6.504;2023-09-19T12:10:49;18.40;99.90
52058;DHT22;38063;53.210;6.504;2023-09-19T12:13:18;18.30;99.90
52058;DHT22;38063;53.210;6.504;2023-09-19T12:15:45;18.20;99.90
52058;DHT22;38063;53.210;6.504;2023-09-19T12:18:31;18.20;99.90
52058;DHT22;38063;53.210;6.504;2023-09-19T12:20:58;18.20;99.90
52058;DHT22;38063;53.210;6.504;2023-09-19T12:23:24;18.10;99.90
52058;DHT22;38063;53.210;6.504;2023-09-19T12:25:51;18.10;99.90
52058;DHT22;38063;53.210;6.504;2023-09-19T12:28:19;18.10;99.90
52058;DHT22;38063;53.210;6.504;2023-09-19T12:30:47;18.00;99.90
52058;DHT22;38063;53.210;6.504;2023-09-19T12:33:19;18.00;99.90
52058;DHT22;38063;53.210;6.504;2023-09-19T12:35:46;17.90;99.90
52058;DHT22;38063;53.210;6.504;2023-09-19T12:38:26;17.70;99.90
52058;DHT22;38063;53.210;6.504;2023-09-19T12:40:57;17.60;99.90
52058;DHT22;38063;53.210;6.504;2023-09-19T12:43:29;17.60;99.90
52058;DHT22;38063;53.210;6.504;2023-09-19T12:45:58;17.60;99.90
52058;DHT22;38063;53.210;6.504;2023-09-19T12:48:26;17.60;99.90
52058;DHT22;38063;53.210;6.504;2023-09-19T12:51:06;17.70;99.90
52058;DHT22;38063;53.210;6.504;2023-09-19T12:53:41;17.80;99.90
52058;DHT22;38063;53.210;6.504;2023-09-19T12:56:10;17.80;99.90
52058;DHT22;38063;53.210;6.504;2023-09-19T12:58:57;17.90;99.90
52058;DHT22;38063;53.210;6.504;2023-09-19T13:01:26;18.00;99.90
52058;DHT22;38063;53.210;6.504;2023-09-19T13:04:12;18.10;99.90
52058;DHT22;38063;53.210;6.504;2023-09-19T13:06:38;18.00;99.90
52058;DHT22;38063;53.210;6.504;2023-09-19T13:09:12;18.00;99.90
52058;DHT22;38063;53.210;6.504;2023-09-19T13:11:38;17.90;99.90
52058;DHT22;38063;53.210;6.504;2023-09-19T13:14:26;18.40;99.90
52058;DHT22;38063;53.210;6.504;2023-09-19T13:17:02;17.90;99.90
52058;DHT22;38063;53.210;6.504;2023-09-19T13:19:44;17.90;99.90
52058;DHT22;38063;53.210;6.504;2023-09-19T13:22:47;17.90;99.90
52058;DHT22;38063;53.210;6.504;2023-09-19T13:25:25;17.90;99.90
52058;DHT22;38063;53.210;6.504;2023-09-19T13:27:54;17.80;99.90
52058;DHT22;38063;53.210;6.504;2023-09-19T13:30:28;17.70;99.90
52058;DHT22;38063;53.210;6.504;2023-09-19T13:33:08;17.50;99.90
52058;DHT22;38063;53.210;6.504;2023-09-19T13:35:35;17.40;99.90
52058;DHT22;38063;53.210;6.504;2023-09-19T13:38:04;17.40;99.90
52058;DHT22;38063;53.210;6.504;2023-09-19T13:40:29;17.30;99.90
52058;DHT22;38063;53.210;6.504;2023-09-19T13:43:00;17.30;99.90
52058;DHT22;38063;53.210;6.504;2023-09-19T13:45:26;17.30;99.90
52058;DHT22;38063;53.210;6.504;2023-09-19T13:47:52;17.30;99.90
52058;DHT22;38063;53.210;6.504;2023-09-19T13:50:19;17.40;99.90
52058;DHT22;38063;53.210;6.504;2023-09-19T13:52:50;17.50;99.90
52058;DHT22;38063;53.210;6.504;2023-09-19T13:55:17;17.50;99.90
52058;DHT22;38063;53.210;6.504;2023-09-19T13:57:46;17.60;99.90
52058;DHT22;38063;53.210;6.504;2023-09-19T14:00:15;17.70;99.90
52058;DHT22;38063;53.210;6.504;2023-09-19T14:02:42;17.80;99.90
52058;DHT22;38063;53.210;6.504;2023-09-19T14:05:10;17.80;99.90
52058;DHT22;38063;53.210;6.504;2023-09-19T14:07:38;18.00;99.90
52058;DHT22;38063;53.210;6.504;2023-09-19T14:10:04;17.90;99.90
52058;DHT22;38063;53.210;6.504;2023-09-19T14:12:33;17.90;99.90
52058;DHT22;38063;53.210;6.504;2023-09-19T14:15:00;17.90;99.90
52058;DHT22;38063;53.210;6.504;2023-09-19T14:17:25;17.90;99.90
52058;DHT22;38063;53.210;6.504;2023-09-19T14:19:52;18.00;99.90
52058;DHT22;38063;53.210;6.504;2023-09-19T14:22:17;17.90;99.90
52058;DHT22;38063;53.210;6.504;2023-09-19T14:24:43;18.00;99.90
52058;DHT22;38063;53.210;6.504;2023-09-19T14:27:09;18.00;99.90
52058;DHT22;38063;53.210;6.504;2023-09-19T14:29:36;18.10;99.90
52058;DHT22;38063;53.210;6.504;2023-09-19T14:32:02;18.10;99.90
52058;DHT22;38063;53.210;6.504;2023-09-19T14:34:28;18.10;99.90
52058;DHT22;38063;53.210;6.504;2023-09-19T14:36:53;18.10;99.90
52058;DHT22;38063;53.210;6.504;2023-09-19T14:39:22;18.10;99.90
52058;DHT22;38063;53.210;6.504;2023-09-19T14:41:48;18.10;99.90
52058;DHT22;38063;53.210;6.504;2023-09-19T14:44:14;18.10;99.90
52058;DHT22;38063;53.210;6.504;2023-09-19T14:46:43;18.10;99.90
52058;DHT22;38063;53.210;6.504;2023-09-19T14:49:11;18.10;99.90
52058;DHT22;38063;53.210;6.504;2023-09-19T14:51:38;18.10;99.90
52058;DHT22;38063;53.210;6.504;2023-09-19T14:54:05;18.00;99.90
52058;DHT22;38063;53.210;6.504;2023-09-19T14:56:33;18.00;99.90
52058;DHT22;38063;53.210;6.504;2023-09-19T14:58:58;17.90;99.90
52058;DHT22;38063;53.210;6.504;2023-09-19T15:01:24;17.80;99.90
52058;DHT22;38063;53.210;6.504;2023-09-19T15:03:50;17.70;99.90
52058;DHT22;38063;53.210;6.504;2023-09-19T15:06:15;17.70;99.90
52058;DHT22;38063;53.210;6.504;2023-09-19T15:08:45;17.60;99.90
52058;DHT22;38063;53.210;6.504;2023-09-19T15:11:16;17.50;99.90
52058;DHT22;38063;53.210;6.504;2023-09-19T15:13:43;17.50;99.90
52058;DHT22;38063;53.210;6.504;2023-09-19T15:16:10;17.40;99.90
52058;DHT22;38063;53.210;6.504;2023-09-19T15:18:40;17.40;99.90
52058;DHT22;38063;53.210;6.504;2023-09-19T15:21:08;17.30;99.90
52058;DHT22;38063;53.210;6.504;2023-09-19T15:23:35;17.30;99.90
52058;DHT22;38063;53.210;6.504;2023-09-19T15:26:06;17.30;99.90
52058;DHT22;38063;53.210;6.504;2023-09-19T15:28:32;17.30;99.90
52058;DHT22;38063;53.210;6.504;2023-09-19T15:31:03;17.20;99.90
52058;DHT22;38063;53.210;6.504;2023-09-19T15:33:32;17.10;99.90
52058;DHT22;38063;53.210;6.504;2023-09-19T15:36:06;17.00;99.90
52058;DHT22;38063;53.210;6.504;2023-09-19T15:38:56;17.00;99.90
52058;DHT22;38063;53.210;6.504;2023-09-19T15:41:19;16.90;99.90
52058;DHT22;38063;53.210;6.504;2023-09-19T15:43:45;16.80;99.90
52058;DHT22;38063;53.210;6.504;2023-09-19T15:46:11;16.70;99.90
52058;DHT22;38063;53.210;6.504;2023-09-19T15:48:37;16.60;99.90
52058;DHT22;38063;53.210;6.504;2023-09-19T15:51:03;16.60;99.90
52058;DHT22;38063;53.210;6.504;2023-09-19T15:53:45;16.60;99.90
52058;DHT22;38063;53.210;6.504;2023-09-19T15:56:11;16.60;99.90
52058;DHT22;38063;53.210;6.504;2023-09-19T15:58:41;16.60;99.90
52058;DHT22;38063;53.210;6.504;2023-09-19T16:01:07;16.50;99.90
52058;DHT22;38063;53.210;6.504;2023-09-19T16:03:36;16.50;99.90
52058;DHT22;38063;53.210;6.504;2023-09-19T16:06:07;16.50;99.90
52058;DHT22;38063;53.210;6.504;2023-09-19T16:08:33;16.60;99.90
52058;DHT22;38063;53.210;6.504;2023-09-19T16:11:00;16.60;99.90